• Join FlightAware (Why Join?)
  • Login
  • US Flag 
12:15AM EDT


 

Airport Tracker/Info


-or-


 

Live Flight TrackerFlight Track Log ✈ FIN666 ✈ 02-Oct-2013 ✈ EKCH / CPH - EFHK / HEL

Flight Track Log - Related Links

Times and Time Zones

All times are in EDT time to prevent confusion due to time zone crossing. See the FIN666 flight status page for this flight to view local times or setup timezone preferences in your user account.

Time Position Orientation Groundspeed Altitude Reporting Facility
EDT Latitude Longitude Course Direction KTS MPH feet Rate Location/Type
07:30AM 55.8166 13.0661 49° Northeast  Level Estimated
07:31AM 55.8825 13.2038 49° Northeast  Level Estimated
07:32AM 55.9483 13.3419 50° Northeast  Level Estimated
07:33AM 56.0139 13.4805 50° Northeast  Level Estimated
07:34AM 56.0794 13.6195 50° Northeast  Level Estimated
07:35AM 56.1447 13.7591 50° Northeast  Level Estimated
07:36AM 56.2133 13.9065 50° Northeast  Level Estimated
07:37AM 56.2817 14.0545 50° Northeast  Level Estimated
07:38AM 56.3500 14.2031 50° Northeast  Level Estimated
07:39AM 56.4180 14.3521 50° Northeast  Level Estimated
07:40AM 56.4860 14.5018 51° Northeast  Level Estimated
07:41AM 56.5537 14.6519 51° Northeast  Level Estimated
07:42AM 56.6212 14.8026 51° Northeast  Level Estimated
07:43AM 56.6886 14.9538 51° Northeast  Level Estimated
07:44AM 56.7557 15.1056 51° Northeast  Level Estimated
07:45AM 56.8227 15.2579 51° Northeast  Level Estimated
07:46AM 56.8895 15.4107 51° Northeast  Level Estimated
07:47AM 56.9561 15.5641 51° Northeast  Level Estimated
07:48AM 57.0226 15.7181 52° Northeast  Level Estimated
07:49AM 57.0888 15.8725 52° Northeast  Level Estimated
07:50AM 57.1549 16.0276 52° Northeast  Level Estimated
07:51AM 57.2207 16.1832 52° Northeast  Level Estimated
07:52AM 57.2864 16.3393 52° Northeast  Level Estimated
07:53AM 57.3518 16.4961 52° Northeast  Level Estimated
07:54AM 57.4171 16.6533 52° Northeast  Level Estimated
07:55AM 57.4831 16.8133 52° Northeast  Level Estimated
07:56AM 57.5488 16.9739 53° Northeast  Level Estimated
07:57AM 57.6143 17.1350 53° Northeast  Level Estimated
07:58AM 57.6797 17.2967 53° Northeast  Level Estimated
07:59AM 57.7448 17.4590 53° Northeast  Level Estimated
08:00AM 57.8097 17.6219 53° Northeast  Level Estimated
08:01AM 57.8745 17.7853 53° Northeast  Level Estimated
08:02AM 57.9389 17.9494 53° Northeast  Level Estimated
08:03AM 58.0032 18.1140 54° Northeast  Level Estimated
08:04AM 58.0673 18.2792 54° Northeast  Level Estimated
08:05AM 58.1312 18.4451 54° Northeast  Level Estimated
08:06AM 58.1948 18.6115 54° Northeast  Level Estimated
08:07AM 58.2583 18.7785 54° Northeast  Level Estimated
08:08AM 58.3215 18.9461 54° Northeast  Level Estimated
08:09AM 58.3845 19.1143 54° Northeast  Level Estimated
08:10AM 58.4472 19.2831 55° Northeast  Level Estimated
08:11AM 58.5098 19.4526 55° Northeast  Level Estimated
08:12AM 58.5721 19.6226 55° Northeast  Level Estimated
08:13AM 58.6342 19.7932 55° Northeast  Level Estimated
08:14AM 58.6961 19.9644 55° Northeast  Level Estimated
08:15AM 58.7577 20.1363 55° Northeast  Level Estimated
08:16AM 58.8191 20.3087 55° Northeast  Level Estimated
08:17AM 58.8803 20.4818 56° Northeast  Level Estimated
08:18AM 58.9413 20.6555 56° Northeast  Level Estimated
08:19AM 59.0020 20.8298 56° Northeast  Level Estimated
08:20AM 59.0625 21.0047 56° Northeast  Level Estimated
08:21AM 59.1227 21.1802 56° Northeast  Level Estimated
08:22AM 59.1827 21.3563 56° Northeast  Level Estimated
08:23AM 59.2425 21.5331 56° Northeast  Level Estimated
08:24AM 59.3020 21.7104 57° Northeast  Level Estimated
08:25AM 59.3613 21.8884 57° Northeast  Level Estimated
08:26AM 59.4204 22.0670 57° Northeast  Level Estimated
08:27AM 59.4792 22.2463 57° Northeast  Level Estimated
08:28AM 59.5377 22.4261 57° Northeast  Level Estimated
08:29AM 59.5960 22.6066 57° Northeast  Level Estimated
08:30AM 59.6541 22.7877 58° Northeast  Level Estimated
08:31AM 59.7119 22.9695 58° Northeast  Level Estimated
08:32AM 59.7695 23.1518 58° Northeast  Level Estimated
08:33AM 59.8268 23.3348 58° Northeast  Level Estimated
08:34AM 59.8838 23.5184 58° Northeast  Level Estimated
08:35AM 59.9406 23.7027 58° Northeast  Level Estimated
08:36AM 59.9971 23.8876 58° Northeast  Level Estimated
08:37AM 60.0534 24.0731 59° Northeast  Level Estimated
08:38AM 60.1094 24.2593 59° Northeast  Level Estimated
08:39AM 60.1651 24.4460 59° Northeast  Level Estimated
08:40AM 60.2206 24.6334 59° Northeast  Level Estimated
08:41AM 60.2759 24.8215 59° Northeast  Level Estimated
08:42AM 60.3172 24.9633 59° Northeast  Level Estimated
08:43AM 60.3172 24.9633 37° Northeast  Level Estimated
08:44AM 60.3172 24.9633 37° Northeast  Level Estimated
08:45AM 60.3172 24.9633 37° Northeast  Level Estimated
08:46AM 60.3172 24.9633 37° Northeast  Level Estimated
08:47AM 60.3172 24.9633 37° Northeast  Level Estimated
08:48AM 60.3172 24.9633 37° Northeast  Level Estimated
08:49AM 60.3172 24.9633 37° Northeast  Level Estimated
08:50AM 60.3172 24.9633 37° Northeast  Level Estimated
08:51AM 60.3172 24.9633 37° Northeast  Level Estimated
08:52AM 60.3172 24.9633 37° Northeast  Level Estimated
08:53AM 60.3172 24.9633 37° Northeast  Level Estimated
08:54AM 60.3172 24.9633 37° Northeast  Level Estimated